Time;durP1;ratioP1;P1;durP2;ratioP2;P2;SDS_P1;SDS_P2;PMS_P1;PMS_P2;Temp;Humidity;BMP_temperature;BMP_pressure;BME280_temperature;BME280_humidity;BME280_pressure;Samples;Min_cycle;Max_cycle;Signal;HPM_P1;HPM_P2
2023/07/10 00:02:17;;;;;;;8.13;4.50;;;;;;;;;;5010535;28;20412;-76
2023/07/10 00:04:46;;;;;;;4.63;3.63;;;;;;;;;;4991662;28;20507;-76
2023/07/10 00:07:18;;;;;;;6.68;4.32;;;;;;;;;;4995358;28;20054;-76
2023/07/10 00:09:47;;;;;;;7.40;5.00;;;;;;;;;;4993061;28;20061;-76
2023/07/10 00:12:19;;;;;;;5.47;4.35;;;;;;;;;;5011046;28;20042;-76
2023/07/10 00:14:47;;;;;;;6.10;4.18;;;;;;;;;;4994263;28;20054;-76
2023/07/10 00:17:15;;;;;;;6.22;3.97;;;;;;;;;;5008854;28;20701;-76
2023/07/10 00:19:42;;;;;;;6.50;4.60;;;;;;;;;;5007518;28;20042;-76
2023/07/10 00:22:09;;;;;;;9.27;5.95;;;;;;;;;;5009087;28;20400;-77
2023/07/10 00:24:36;;;;;;;4.38;3.92;;;;;;;;;;5011099;28;20049;-76
2023/07/10 00:27:13;;;;;;;4.93;4.20;;;;;;;;;;5006448;28;20053;-76
2023/07/10 00:29:43;;;;;;;5.90;4.47;;;;;;;;;;5009459;28;20041;-76
2023/07/10 00:32:13;;;;;;;7.25;5.15;;;;;;;;;;4993560;28;20042;-76
2023/07/10 00:34:40;;;;;;;6.60;4.80;;;;;;;;;;5010394;28;20050;-75
2023/07/10 00:37:08;;;;;;;8.73;4.55;;;;;;;;;;5010889;28;20057;-76
2023/07/10 00:39:38;;;;;;;5.20;4.70;;;;;;;;;;5009917;28;20416;-76
2023/07/10 00:42:12;;;;;;;8.15;4.63;;;;;;;;;;4992483;28;20045;-76
2023/07/10 00:44:44;;;;;;;6.70;4.65;;;;;;;;;;4993001;28;20053;-76
2023/07/10 00:47:15;;;;;;;6.25;4.68;;;;;;;;;;4993402;28;20050;-76
2023/07/10 00:49:46;;;;;;;5.90;4.45;;;;;;;;;;4988454;28;20046;-76
2023/07/10 00:52:19;;;;;;;5.30;4.80;;;;;;;;;;5009361;28;20484;-76
2023/07/10 00:54:50;;;;;;;5.03;4.47;;;;;;;;;;4992638;28;20050;-76
2023/07/10 00:57:22;;;;;;;6.80;5.65;;;;;;;;;;4994063;28;20510;-76
2023/07/10 00:59:53;;;;;;;7.95;5.97;;;;;;;;;;4990605;28;20050;-76
2023/07/10 01:02:23;;;;;;;5.22;4.40;;;;;;;;;;4991249;28;20042;-76
2023/07/10 01:04:58;;;;;;;6.05;4.78;;;;;;;;;;4993619;28;20058;-76
2023/07/10 01:07:27;;;;;;;6.05;4.97;;;;;;;;;;4992731;28;20061;-76
2023/07/10 01:09:57;;;;;;;5.32;4.82;;;;;;;;;;4990166;28;20050;-76
2023/07/10 01:12:28;;;;;;;5.60;3.83;;;;;;;;;;5008467;28;20077;-76
2023/07/10 01:15:00;;;;;;;5.80;4.30;;;;;;;;;;5009069;28;20050;-76
2023/07/10 01:17:28;;;;;;;5.65;4.93;;;;;;;;;;4988330;28;20054;-76
2023/07/10 01:19:58;;;;;;;6.70;5.32;;;;;;;;;;4989583;28;20076;-76
2023/07/10 01:22:30;;;;;;;6.13;5.07;;;;;;;;;;5009075;28;20050;-76
2023/07/10 01:24:59;;;;;;;5.25;4.40;;;;;;;;;;5009075;28;20050;-76
2023/07/10 01:27:28;;;;;;;5.30;4.05;;;;;;;;;;5007642;28;20091;-76
2023/07/10 01:30:01;;;;;;;9.23;6.43;;;;;;;;;;4990944;28;20050;-76
2023/07/10 01:32:32;;;;;;;6.35;4.95;;;;;;;;;;5022357;28;20049;-76
2023/07/10 01:35:01;;;;;;;6.10;5.03;;;;;;;;;;5009861;28;20049;-76
2023/07/10 01:37:34;;;;;;;8.35;5.22;;;;;;;;;;5003769;28;20053;-76
2023/07/10 01:40:03;;;;;;;10.20;5.72;;;;;;;;;;5005098;28;20424;-76
2023/07/10 01:42:31;;;;;;;5.05;4.50;;;;;;;;;;4988067;28;20050;-76
2023/07/10 01:44:58;;;;;;;5.13;4.18;;;;;;;;;;5025074;28;20062;-76
2023/07/10 01:47:26;;;;;;;4.82;4.32;;;;;;;;;;4992039;28;20061;-76
2023/07/10 01:49:56;;;;;;;10.80;4.85;;;;;;;;;;5009209;28;20055;-76
2023/07/10 01:52:28;;;;;;;5.57;5.07;;;;;;;;;;5008651;28;20420;-76
2023/07/10 01:54:59;;;;;;;8.10;5.35;;;;;;;;;;4992246;28;20061;-76
2023/07/10 01:57:29;;;;;;;8.13;4.65;;;;;;;;;;4991630;28;20057;-76
2023/07/10 01:59:56;;;;;;;6.18;4.93;;;;;;;;;;4987502;28;20065;-76
2023/07/10 02:02:24;;;;;;;7.15;5.38;;;;;;;;;;5007514;28;20064;-76
2023/07/10 02:04:53;;;;;;;7.00;4.93;;;;;;;;;;5008892;28;20443;-76
2023/07/10 02:07:23;;;;;;;9.10;4.88;;;;;;;;;;5008079;28;20057;-76
2023/07/10 02:09:51;;;;;;;6.35;4.47;;;;;;;;;;4988516;28;20054;-76
2023/07/10 02:12:20;;;;;;;7.40;5.07;;;;;;;;;;4989846;28;20049;-76
2023/07/10 02:14:47;;;;;;;7.22;5.45;;;;;;;;;;5008832;28;20045;-76
2023/07/10 02:17:17;;;;;;;5.53;5.03;;;;;;;;;;4989608;28;20057;-76
2023/07/10 02:19:44;;;;;;;4.88;4.38;;;;;;;;;;4992025;28;20531;-76
2023/07/10 02:22:14;;;;;;;5.95;5.18;;;;;;;;;;5008143;28;20042;-76
2023/07/10 02:24:43;;;;;;;6.03;4.90;;;;;;;;;;5007772;28;20065;-76
2023/07/10 02:27:11;;;;;;;6.30;4.70;;;;;;;;;;5009171;28;20057;-76
2023/07/10 02:29:43;;;;;;;10.60;4.82;;;;;;;;;;4990617;28;20058;-76
2023/07/10 02:32:11;;;;;;;7.03;4.80;;;;;;;;;;4992637;28;20046;-76
2023/07/10 02:34:38;;;;;;;8.93;5.20;;;;;;;;;;4991229;28;20492;-75
2023/07/10 02:37:09;;;;;;;7.38;5.03;;;;;;;;;;4992988;28;20046;-75
2023/07/10 02:39:36;;;;;;;10.05;5.60;;;;;;;;;;4989524;28;20508;-76
2023/07/10 02:42:04;;;;;;;8.07;4.97;;;;;;;;;;5008810;28;20054;-76
2023/07/10 02:44:31;;;;;;;5.25;4.35;;;;;;;;;;4990555;28;20061;-76
2023/07/10 02:47:00;;;;;;;6.47;4.30;;;;;;;;;;4990468;28;20061;-76
2023/07/10 02:49:27;;;;;;;10.38;5.70;;;;;;;;;;5004315;28;20053;-76
2023/07/10 02:51:55;;;;;;;6.57;5.47;;;;;;;;;;5008072;28;20058;-76
2023/07/10 02:54:22;;;;;;;7.43;5.47;;;;;;;;;;4989673;28;20057;-76
2023/07/10 02:56:49;;;;;;;6.70;5.18;;;;;;;;;;5005679;28;20042;-76
2023/07/10 02:59:19;;;;;;;11.40;6.80;;;;;;;;;;5003283;28;20041;-76
2023/07/10 03:01:47;;;;;;;6.72;4.50;;;;;;;;;;4990873;28;20056;-76
2023/07/10 03:04:17;;;;;;;6.40;5.65;;;;;;;;;;4990782;28;20054;-76
2023/07/10 03:06:47;;;;;;;16.50;5.53;;;;;;;;;;5008516;28;20049;-76
2023/07/10 03:09:17;;;;;;;7.50;4.80;;;;;;;;;;4992631;28;20076;-76
2023/07/10 03:11:47;;;;;;;5.65;4.38;;;;;;;;;;5010629;28;20049;-76
2023/07/10 03:14:17;;;;;;;8.10;5.38;;;;;;;;;;4992564;28;20377;-76
2023/07/10 03:16:44;;;;;;;8.63;5.53;;;;;;;;;;4994193;28;20054;-76
2023/07/10 03:19:15;;;;;;;6.00;5.25;;;;;;;;;;4995728;28;20046;-75
2023/07/10 03:21:44;;;;;;;6.70;4.85;;;;;;;;;;4996216;28;20054;-75
2023/07/10 03:24:11;;;;;;;6.80;5.90;;;;;;;;;;5010782;28;20049;-76
2023/07/10 03:26:38;;;;;;;6.35;4.65;;;;;;;;;;5010660;28;21256;-76
2023/07/10 03:29:08;;;;;;;7.20;5.32;;;;;;;;;;4994610;28;20058;-76
2023/07/10 03:31:35;;;;;;;6.13;4.15;;;;;;;;;;5011146;28;20128;-76
2023/07/10 03:34:03;;;;;;;5.45;4.95;;;;;;;;;;5011126;28;20444;-76
2023/07/10 03:36:30;;;;;;;7.07;5.32;;;;;;;;;;4992141;28;20061;-76
2023/07/10 03:38:59;;;;;;;6.05;4.63;;;;;;;;;;4992781;28;20046;-76
2023/07/10 03:41:29;;;;;;;5.93;5.32;;;;;;;;;;5011283;28;20052;-76
2023/07/10 03:43:59;;;;;;;8.45;4.90;;;;;;;;;;4995214;28;20049;-76
2023/07/10 03:46:28;;;;;;;6.45;5.00;;;;;;;;;;4994011;28;20053;-76
2023/07/10 03:48:59;;;;;;;5.95;4.97;;;;;;;;;;5010170;28;20065;-76
2023/07/10 03:51:32;;;;;;;5.78;5.28;;;;;;;;;;5010803;28;20057;-77
2023/07/10 03:54:03;;;;;;;6.10;5.53;;;;;;;;;;5014671;28;20046;-77
2023/07/10 03:56:30;;;;;;;7.88;5.28;;;;;;;;;;5012651;28;20049;-76
2023/07/10 03:58:59;;;;;;;7.22;5.57;;;;;;;;;;5010087;28;20057;-76
2023/07/10 04:01:30;;;;;;;6.20;5.63;;;;;;;;;;4994901;28;20061;-76
2023/07/10 04:04:00;;;;;;;7.55;5.32;;;;;;;;;;5012084;28;20041;-76
2023/07/10 04:06:29;;;;;;;5.75;4.82;;;;;;;;;;5012094;28;20057;-76
2023/07/10 04:09:02;;;;;;;6.88;5.82;;;;;;;;;;5009580;28;20050;-76
2023/07/10 04:11:30;;;;;;;7.55;5.43;;;;;;;;;;4993218;28;20041;-77
2023/07/10 04:13:59;;;;;;;7.20;5.60;;;;;;;;;;5008772;28;20046;-77
2023/07/10 04:16:29;;;;;;;6.80;5.10;;;;;;;;;;4995440;28;20058;-77
2023/07/10 04:19:01;;;;;;;4.90;3.95;;;;;;;;;;5010049;28;20169;-77
2023/07/10 04:21:30;;;;;;;6.43;4.93;;;;;;;;;;4991138;28;20046;-77
2023/07/10 04:24:00;;;;;;;6.55;5.07;;;;;;;;;;5009459;28;20049;-77
2023/07/10 04:26:34;;;;;;;6.53;5.38;;;;;;;;;;5010817;28;20054;-77
2023/07/10 04:29:06;;;;;;;7.03;5.72;;;;;;;;;;4992685;28;20050;-76
2023/07/10 04:31:38;;;;;;;7.07;4.70;;;;;;;;;;5008745;28;20130;-76
2023/07/10 04:34:08;;;;;;;5.88;5.05;;;;;;;;;;5009783;28;20496;-76
2023/07/10 04:36:38;;;;;;;7.80;5.10;;;;;;;;;;5028266;22;20046;-77
2023/07/10 04:39:05;;;;;;;8.10;5.22;;;;;;;;;;4991486;28;20053;-76
2023/07/10 04:41:33;;;;;;;6.82;4.85;;;;;;;;;;5008260;28;20484;-76
2023/07/10 04:44:01;;;;;;;6.95;4.70;;;;;;;;;;5010373;28;20054;-77
2023/07/10 04:46:31;;;;;;;6.38;5.25;;;;;;;;;;5012369;28;20053;-77
2023/07/10 04:48:59;;;;;;;7.10;5.45;;;;;;;;;;5011485;28;20068;-77
2023/07/10 04:51:26;;;;;;;6.07;4.70;;;;;;;;;;4992215;28;20554;-77
2023/07/10 04:53:53;;;;;;;7.72;5.35;;;;;;;;;;5010963;28;20046;-77
2023/07/10 04:56:23;;;;;;;6.28;5.53;;;;;;;;;;4995986;28;20050;-77
2023/07/10 04:58:53;;;;;;;8.60;5.47;;;;;;;;;;5015325;28;20050;-77
2023/07/10 05:01:22;;;;;;;5.93;4.32;;;;;;;;;;5034444;28;20048;-77
2023/07/10 05:03:52;;;;;;;7.93;5.60;;;;;;;;;;5033326;28;20046;-77
2023/07/10 05:06:22;;;;;;;8.13;6.00;;;;;;;;;;5029578;28;20044;-77
2023/07/10 05:08:53;;;;;;;6.55;5.10;;;;;;;;;;5009147;28;20057;-76
2023/07/10 05:11:22;;;;;;;6.68;5.32;;;;;;;;;;5007677;28;20504;-76
2023/07/10 05:13:49;;;;;;;9.35;5.80;;;;;;;;;;5008014;28;20056;-76
2023/07/10 05:16:18;;;;;;;7.10;4.90;;;;;;;;;;5009263;28;20061;-77
2023/07/10 05:18:47;;;;;;;6.00;4.47;;;;;;;;;;5010114;28;20050;-77
2023/07/10 05:21:15;;;;;;;14.88;5.13;;;;;;;;;;5006897;28;20452;-77
2023/07/10 05:23:47;;;;;;;6.15;5.30;;;;;;;;;;4993006;28;20061;-77
2023/07/10 05:26:16;;;;;;;5.63;4.65;;;;;;;;;;5010179;28;20054;-77
2023/07/10 05:28:45;;;;;;;6.50;4.45;;;;;;;;;;5008947;28;20050;-77
2023/07/10 05:31:15;;;;;;;7.50;5.65;;;;;;;;;;4993841;28;20053;-77
2023/07/10 05:33:48;;;;;;;6.32;4.43;;;;;;;;;;4990845;28;20049;-77
2023/07/10 05:36:20;;;;;;;;;;;;;;;;;;5010199;28;20046;-77
2023/07/10 05:38:50;;;;;;;5.18;4.63;;;;;;;;;;4992727;28;19925;-77
2023/07/10 05:41:18;;;;;;;9.20;5.63;;;;;;;;;;4993153;28;20057;-77
2023/07/10 05:43:45;;;;;;;8.60;5.93;;;;;;;;;;5008152;28;20042;-77
2023/07/10 05:46:17;;;;;;;7.78;5.03;;;;;;;;;;5008430;28;20056;-77
2023/07/10 05:48:52;;;;;;;6.60;5.22;;;;;;;;;;4991864;28;20504;-77
2023/07/10 05:51:20;;;;;;;7.47;5.03;;;;;;;;;;4993329;28;20463;-77
2023/07/10 05:53:47;;;;;;;8.02;5.00;;;;;;;;;;4993286;28;20057;-77
2023/07/10 05:56:17;;;;;;;7.72;5.90;;;;;;;;;;4991489;28;20065;-77
2023/07/10 05:58:44;;;;;;;5.85;5.07;;;;;;;;;;5008794;28;20080;-77
2023/07/10 06:01:12;;;;;;;5.63;4.50;;;;;;;;;;5008659;28;20412;-77
2023/07/10 06:03:39;;;;;;;6.28;5.25;;;;;;;;;;5024627;28;20049;-77
2023/07/10 06:06:08;;;;;;;7.38;4.95;;;;;;;;;;4991780;28;20042;-77
2023/07/10 06:08:36;;;;;;;6.90;4.68;;;;;;;;;;4990668;28;20448;-77
2023/07/10 06:11:09;;;;;;;8.18;5.10;;;;;;;;;;5007546;28;20045;-77
2023/07/10 06:13:36;;;;;;;5.85;4.07;;;;;;;;;;5005641;28;20046;-77
2023/07/10 06:16:09;;;;;;;7.25;4.70;;;;;;;;;;4989080;28;20044;-77
2023/07/10 06:18:39;;;;;;;4.93;4.18;;;;;;;;;;5007942;28;20048;-77
2023/07/10 06:21:13;;;;;;;6.85;4.65;;;;;;;;;;4993035;28;20518;-77
2023/07/10 06:23:50;;;;;;;5.25;4.03;;;;;;;;;;4991944;28;20061;-77
2023/07/10 06:26:20;;;;;;;5.80;4.95;;;;;;;;;;5006934;28;20061;-77
2023/07/10 06:28:53;;;;;;;4.95;4.40;;;;;;;;;;5008410;28;20057;-77
2023/07/10 06:31:23;;;;;;;5.40;4.72;;;;;;;;;;4992927;28;20054;-77
2023/07/10 06:33:54;;;;;;;6.22;4.78;;;;;;;;;;5007773;28;20042;-78
2023/07/10 06:36:23;;;;;;;4.97;4.53;;;;;;;;;;5005518;28;20057;-78
2023/07/10 06:38:53;;;;;;;8.40;4.27;;;;;;;;;;5007985;28;20076;-78
2023/07/10 06:41:23;;;;;;;5.15;4.50;;;;;;;;;;4993695;28;20054;-78
2023/07/10 06:43:51;;;;;;;4.65;4.03;;;;;;;;;;5012391;28;20046;-78
2023/07/10 06:46:25;;;;;;;4.15;3.78;;;;;;;;;;5012792;28;20054;-78
2023/07/10 06:48:58;;;;;;;5.63;4.55;;;;;;;;;;5026697;28;20056;-78
2023/07/10 06:51:30;;;;;;;9.52;5.13;;;;;;;;;;5005326;28;20058;-78
2023/07/10 06:53:57;;;;;;;5.28;4.43;;;;;;;;;;5012599;28;20042;-78
2023/07/10 06:56:42;;;;;;;7.15;4.07;;;;;;;;;;5009755;28;20442;-78
2023/07/10 06:59:16;;;;;;;4.70;3.97;;;;;;;;;;5009615;28;20050;-78
2023/07/10 07:01:46;;;;;;;4.30;3.90;;;;;;;;;;4991266;28;20052;-78
2023/07/10 07:04:15;;;;;;;5.20;3.75;;;;;;;;;;4996835;28;20050;-78
2023/07/10 07:06:43;;;;;;;7.38;4.90;;;;;;;;;;5011783;28;20046;-78
2023/07/10 07:09:15;;;;;;;5.13;4.60;;;;;;;;;;5010702;28;20053;-78
2023/07/10 07:11:46;;;;;;;6.72;4.53;;;;;;;;;;5011830;28;20061;-78
2023/07/10 07:14:13;;;;;;;11.02;4.70;;;;;;;;;;4992602;28;20046;-78
2023/07/10 07:16:41;;;;;;;4.93;4.45;;;;;;;;;;5007249;28;20513;-79
2023/07/10 07:19:08;;;;;;;6.95;4.40;;;;;;;;;;5012130;28;20046;-79
2023/07/10 07:21:37;;;;;;;6.63;4.57;;;;;;;;;;5015512;28;20048;-79
2023/07/10 07:24:07;;;;;;;8.82;5.03;;;;;;;;;;4996240;28;20947;-79
2023/07/10 07:26:37;;;;;;;8.05;4.20;;;;;;;;;;4999571;28;20057;-79
2023/07/10 07:29:04;;;;;;;6.20;4.63;;;;;;;;;;4993013;28;20050;-80
2023/07/10 07:31:33;;;;;;;5.25;3.88;;;;;;;;;;4998909;28;20069;-80
2023/07/10 07:34:00;;;;;;;6.35;4.57;;;;;;;;;;5015758;28;20547;-80
2023/07/10 07:36:32;;;;;;;5.13;4.57;;;;;;;;;;5016822;28;20061;-80
2023/07/10 07:39:04;;;;;;;7.15;5.13;;;;;;;;;;5013011;28;20042;-79
2023/07/10 07:41:35;;;;;;;6.45;4.38;;;;;;;;;;5013579;28;20092;-79
2023/07/10 07:44:03;;;;;;;6.00;4.80;;;;;;;;;;4999555;28;20046;-79
2023/07/10 07:46:30;;;;;;;8.07;4.60;;;;;;;;;;5015223;28;20046;-79
2023/07/10 07:48:58;;;;;;;10.18;6.00;;;;;;;;;;5000026;28;20050;-79
2023/07/10 07:51:25;;;;;;;8.15;5.32;;;;;;;;;;4998137;28;20519;-80
2023/07/10 07:54:03;;;;;;;5.68;4.85;;;;;;;;;;4998744;28;20423;-80
2023/07/10 07:56:30;;;;;;;5.63;5.18;;;;;;;;;;5032882;28;20058;-80
2023/07/10 07:58:59;;;;;;;7.60;6.15;;;;;;;;;;4998186;28;20045;-80
2023/07/10 08:01:26;;;;;;;8.18;6.38;;;;;;;;;;5016263;28;20049;-80
2023/07/10 08:03:53;;;;;;;6.25;5.38;;;;;;;;;;5014176;28;20061;-80
2023/07/10 08:06:21;;;;;;;8.57;6.80;;;;;;;;;;5016047;28;20054;-80
2023/07/10 08:08:49;;;;;;;8.18;6.32;;;;;;;;;;4998414;28;20061;-79
2023/07/10 08:11:16;;;;;;;7.30;6.15;;;;;;;;;;4992648;28;20053;-79
2023/07/10 08:13:44;;;;;;;6.45;5.47;;;;;;;;;;4994399;28;20208;-79
2023/07/10 08:16:13;;;;;;;15.82;6.68;;;;;;;;;;4994905;28;20057;-79
2023/07/10 08:18:42;;;;;;;6.43;5.90;;;;;;;;;;5012489;28;20049;-82
2023/07/10 08:21:15;;;;;;;7.97;5.35;;;;;;;;;;5013289;28;20064;-80
2023/07/10 08:23:45;;;;;;;10.48;6.45;;;;;;;;;;5000519;28;20081;-80
2023/07/10 08:26:12;;;;;;;7.20;6.40;;;;;;;;;;5011107;28;20049;-80
2023/07/10 08:28:40;;;;;;;11.38;6.45;;;;;;;;;;5013666;28;20133;-80
2023/07/10 08:31:10;;;;;;;11.10;6.82;;;;;;;;;;5014788;28;20056;-80
2023/07/10 08:33:41;;;;;;;7.47;6.50;;;;;;;;;;4999523;28;20053;-80
2023/07/10 08:36:08;;;;;;;6.05;5.45;;;;;;;;;;5017155;28;20042;-80
2023/07/10 08:38:38;;;;;;;6.90;6.32;;;;;;;;;;5003443;28;20413;-80
2023/07/10 08:41:15;;;;;;;;;;;;;;;;;;5007392;28;20054;-80
2023/07/10 08:43:46;;;;;;;7.72;5.93;;;;;;;;;;5016546;28;19925;-80
2023/07/10 08:46:16;;;;;;;6.40;5.68;;;;;;;;;;5000227;28;20515;-80
2023/07/10 08:48:52;;;;;;;6.60;5.78;;;;;;;;;;4997268;28;20069;-79
2023/07/10 08:51:40;;;;;;;10.90;6.65;;;;;;;;;;4999148;28;20050;-79
2023/07/10 08:54:10;;;;;;;7.32;5.40;;;;;;;;;;5013151;28;20046;-79
2023/07/10 08:56:42;;;;;;;6.57;5.93;;;;;;;;;;4995446;28;20510;-78
2023/07/10 08:59:25;;;;;;;6.65;5.97;;;;;;;;;;5005471;28;20053;-78
2023/07/10 09:01:55;;;;;;;7.45;6.15;;;;;;;;;;5009211;28;20072;-78
2023/07/10 09:04:27;;;;;;;13.65;6.18;;;;;;;;;;4992621;28;20054;-78
2023/07/10 09:06:58;;;;;;;6.93;5.80;;;;;;;;;;5009955;28;20472;-77
2023/07/10 09:09:35;;;;;;;6.93;5.83;;;;;;;;;;4991181;28;20050;-77
2023/07/10 09:12:22;;;;;;;8.25;5.60;;;;;;;;;;5008679;28;20053;-77
2023/07/10 09:14:53;;;;;;;6.28;4.97;;;;;;;;;;5009525;28;20057;-79
2023/07/10 09:17:46;;;;;;;5.00;4.45;;;;;;;;;;5009701;28;20046;-79
2023/07/10 09:20:20;;;;;;;7.88;5.45;;;;;;;;;;4994093;28;20049;-79
2023/07/10 09:22:50;;;;;;;7.47;6.20;;;;;;;;;;4993453;28;20416;-79
2023/07/10 09:25:20;;;;;;;8.02;5.35;;;;;;;;;;4992991;28;20669;-79
2023/07/10 09:27:48;;;;;;;7.32;5.22;;;;;;;;;;4993355;28;20049;-79
2023/07/10 09:30:26;;;;;;;6.35;5.28;;;;;;;;;;4994073;28;20054;-79
2023/07/10 09:33:01;;;;;;;;;;;;;;;;;;5010357;28;20053;-79
2023/07/10 09:35:30;;;;;;;10.25;6.18;;;;;;;;;;5004879;28;19926;-79
2023/07/10 09:38:01;;;;;;;5.18;4.68;;;;;;;;;;4993151;28;20420;-79
2023/07/10 09:40:39;;;;;;;7.40;5.82;;;;;;;;;;4991083;28;20053;-78
2023/07/10 09:43:11;;;;;;;6.18;4.93;;;;;;;;;;5008708;28;20058;-79
2023/07/10 09:45:43;;;;;;;14.32;5.75;;;;;;;;;;5006902;28;20752;-78
2023/07/10 09:48:16;;;;;;;7.55;6.13;;;;;;;;;;5012133;28;20065;-80
2023/07/10 09:50:51;;;;;;;6.00;5.40;;;;;;;;;;5014178;28;20053;-81
2023/07/10 09:53:26;;;;;;;6.32;5.00;;;;;;;;;;4997876;28;20069;-79
2023/07/10 09:55:53;;;;;;;8.00;5.28;;;;;;;;;;4993591;28;20248;-81
2023/07/10 09:58:20;;;;;;;6.55;5.13;;;;;;;;;;4996844;28;20060;-80
2023/07/10 10:00:48;;;;;;;6.60;5.97;;;;;;;;;;4997243;28;20061;-80
2023/07/10 10:03:18;;;;;;;8.82;6.80;;;;;;;;;;4998829;28;20050;-80
2023/07/10 10:05:52;;;;;;;6.07;5.57;;;;;;;;;;5012882;28;20045;-80
2023/07/10 10:08:26;;;;;;;6.35;5.05;;;;;;;;;;5007918;28;20053;-80
2023/07/10 10:11:01;;;;;;;;;;;;;;;;;;5014739;28;20045;-80
2023/07/10 10:13:30;;;;;;;6.35;5.13;;;;;;;;;;5010853;28;19925;-80
2023/07/10 10:16:03;;;;;;;6.38;5.55;;;;;;;;;;5010872;28;20042;-80
2023/07/10 10:18:38;;;;;;;5.97;5.00;;;;;;;;;;4995558;28;20072;-80
2023/07/10 10:21:06;;;;;;;7.70;6.05;;;;;;;;;;4997693;28;20046;-80
2023/07/10 10:23:38;;;;;;;6.55;5.70;;;;;;;;;;5010833;28;20057;-80
2023/07/10 10:26:17;;;;;;;6.30;5.70;;;;;;;;;;4998583;28;20069;-80
2023/07/10 10:28:52;;;;;;;13.00;6.97;;;;;;;;;;4982740;28;20056;-80
2023/07/10 10:31:26;;;;;;;9.52;6.63;;;;;;;;;;4998362;28;20080;-80
2023/07/10 10:34:00;;;;;;;10.40;6.40;;;;;;;;;;5009131;28;20054;-78
2023/07/10 10:36:36;;;;;;;6.63;5.82;;;;;;;;;;4990801;28;20492;-78
2023/07/10 10:39:20;;;;;;;7.38;6.13;;;;;;;;;;4988890;28;20054;-78
2023/07/10 10:41:54;;;;;;;6.03;5.40;;;;;;;;;;4992892;28;20062;-79
2023/07/10 10:44:38;;;;;;;6.32;5.72;;;;;;;;;;5007966;28;20515;-79
2023/07/10 10:47:19;;;;;;;8.30;5.15;;;;;;;;;;5009625;28;20034;-79
2023/07/10 10:49:57;;;;;;;6.22;5.40;;;;;;;;;;5007507;28;20041;-79
2023/07/10 10:52:32;;;;;;;7.18;5.32;;;;;;;;;;5009115;28;20050;-80
2023/07/10 10:55:19;;;;;;;6.45;5.85;;;;;;;;;;5009882;28;20066;-80
2023/07/10 10:57:50;;;;;;;6.05;5.38;;;;;;;;;;5013593;28;20389;-80
2023/07/10 11:00:29;;;;;;;8.23;5.33;;;;;;;;;;4994746;28;20046;-80
2023/07/10 11:03:08;;;;;;;7.03;5.53;;;;;;;;;;4997201;28;20046;-80
2023/07/10 11:05:39;;;;;;;6.53;5.85;;;;;;;;;;4994974;28;20057;-80
2023/07/10 11:08:22;;;;;;;6.53;5.43;;;;;;;;;;5026229;28;20057;-80
2023/07/10 11:11:02;;;;;;;6.75;6.15;;;;;;;;;;5012118;28;20049;-80
2023/07/10 11:13:41;;;;;;;5.85;4.60;;;;;;;;;;5013303;28;20053;-80
2023/07/10 11:16:17;;;;;;;6.60;5.93;;;;;;;;;;4996869;28;20050;-80
2023/07/10 11:18:54;;;;;;;5.30;4.88;;;;;;;;;;4998548;28;20054;-80
2023/07/10 11:21:25;;;;;;;7.80;5.40;;;;;;;;;;4996955;28;20053;-80
2023/07/10 11:24:32;;;;;;;5.60;5.15;;;;;;;;;;5013748;28;20042;-80
2023/07/10 11:27:13;;;;;;;6.82;6.13;;;;;;;;;;5005846;28;20427;-78
2023/07/10 11:30:07;;;;;;;8.57;6.13;;;;;;;;;;5013097;28;20054;-78
2023/07/10 11:33:02;;;;;;;8.10;5.68;;;;;;;;;;4992407;28;20053;-77
2023/07/10 11:36:14;;;;;;;6.32;5.22;;;;;;;;;;5024183;28;20049;-79
2023/07/10 11:38:55;;;;;;;5.38;4.55;;;;;;;;;;4992276;28;20076;-79
2023/07/10 11:41:28;;;;;;;6.15;5.53;;;;;;;;;;4997602;28;20050;-79
2023/07/10 11:44:16;;;;;;;5.75;4.40;;;;;;;;;;5001682;28;20049;-79
2023/07/10 11:47:01;;;;;;;5.63;5.13;;;;;;;;;;5003119;28;20050;-80
2023/07/10 11:49:46;;;;;;;4.90;4.50;;;;;;;;;;5017320;28;20060;-80
2023/07/10 11:52:28;;;;;;;4.18;3.78;;;;;;;;;;5014793;28;20061;-80
2023/07/10 11:55:12;;;;;;;4.20;3.80;;;;;;;;;;5005190;28;20424;-78
2023/07/10 11:57:40;;;;;;;5.57;4.80;;;;;;;;;;5008196;28;20050;-79
2023/07/10 12:00:26;;;;;;;7.53;5.10;;;;;;;;;;5010965;28;20045;-80
2023/07/10 12:02:55;;;;;;;4.80;4.13;;;;;;;;;;4992995;28;20053;-78
2023/07/10 12:05:27;;;;;;;5.80;4.40;;;;;;;;;;5007738;28;20061;-77
2023/07/10 12:08:05;;;;;;;4.57;4.18;;;;;;;;;;5009941;28;20050;-77
2023/07/10 12:10:37;;;;;;;8.02;4.60;;;;;;;;;;4994608;28;20492;-77
2023/07/10 12:13:16;;;;;;;4.35;3.95;;;;;;;;;;4990817;28;20057;-78
2023/07/10 12:15:46;;;;;;;5.90;4.73;;;;;;;;;;5006758;28;20060;-78
2023/07/10 12:18:16;;;;;;;5.15;4.43;;;;;;;;;;5010122;28;20050;-77
2023/07/10 12:20:50;;;;;;;4.30;3.90;;;;;;;;;;5008759;28;20049;-77
2023/07/10 12:23:20;;;;;;;;;;;;;;;;;;5007482;28;20400;-77
2023/07/10 12:25:51;;;;;;;4.50;3.95;;;;;;;;;;4998600;28;19922;-77
2023/07/10 12:28:22;;;;;;;4.07;3.67;;;;;;;;;;4992400;28;20050;-77
2023/07/10 12:30:51;;;;;;;5.70;3.53;;;;;;;;;;4993874;28;20054;-77
2023/07/10 12:33:29;;;;;;;5.18;3.97;;;;;;;;;;4994591;28;20424;-77
2023/07/10 12:36:04;;;;;;;3.72;3.38;;;;;;;;;;4995367;28;20176;-77
2023/07/10 12:38:32;;;;;;;4.07;3.47;;;;;;;;;;5009610;28;20496;-77
2023/07/10 12:41:03;;;;;;;3.17;2.83;;;;;;;;;;5005736;28;20408;-77
2023/07/10 12:43:34;;;;;;;4.93;2.88;;;;;;;;;;5011424;28;20049;-77
2023/07/10 12:46:14;;;;;;;3.42;3.08;;;;;;;;;;5011601;28;20052;-77
2023/07/10 12:48:45;;;;;;;5.75;3.17;;;;;;;;;;4989705;28;20054;-77
2023/07/10 12:51:19;;;;;;;3.78;3.00;;;;;;;;;;5010997;28;20050;-77
2023/07/10 12:53:46;;;;;;;5.53;3.17;;;;;;;;;;4994141;28;20050;-77
2023/07/10 12:56:25;;;;;;;6.60;3.50;;;;;;;;;;5010433;28;20436;-78
2023/07/10 12:58:55;;;;;;;5.95;3.33;;;;;;;;;;4992847;28;20052;-78
2023/07/10 13:01:27;;;;;;;3.45;3.15;;;;;;;;;;4992896;28;20054;-78
2023/07/10 13:04:08;;;;;;;4.55;3.65;;;;;;;;;;5009137;28;20432;-78
2023/07/10 13:06:36;;;;;;;4.20;3.35;;;;;;;;;;5007036;28;20054;-78
2023/07/10 13:09:06;;;;;;;4.05;3.00;;;;;;;;;;4989333;28;20053;-78
2023/07/10 13:11:33;;;;;;;4.40;3.22;;;;;;;;;;4991912;28;20762;-78
2023/07/10 13:14:06;;;;;;;7.85;3.88;;;;;;;;;;5011801;28;20643;-76
2023/07/10 13:16:34;;;;;;;6.78;4.18;;;;;;;;;;4999077;28;20046;-77
2023/07/10 13:19:04;;;;;;;4.07;3.38;;;;;;;;;;4993041;28;20420;-77
2023/07/10 13:21:31;;;;;;;5.25;3.85;;;;;;;;;;5007341;28;20487;-77
2023/07/10 13:23:58;;;;;;;4.85;4.20;;;;;;;;;;4990760;28;20056;-77
2023/07/10 13:26:28;;;;;;;6.47;4.05;;;;;;;;;;4993163;28;20057;-77
2023/07/10 13:28:59;;;;;;;3.63;3.30;;;;;;;;;;4992736;28;20052;-77
2023/07/10 13:31:32;;;;;;;3.42;3.10;;;;;;;;;;5025051;28;20421;-77
2023/07/10 13:34:00;;;;;;;4.10;3.72;;;;;;;;;;5007886;28;20042;-77
2023/07/10 13:36:28;;;;;;;3.03;2.75;;;;;;;;;;4993375;28;20420;-78
2023/07/10 13:38:57;;;;;;;3.22;2.85;;;;;;;;;;4994167;28;20048;-77
2023/07/10 13:41:26;;;;;;;4.05;2.90;;;;;;;;;;4991168;28;20061;-77
2023/07/10 13:43:53;;;;;;;3.35;3.05;;;;;;;;;;5008042;28;20050;-77
2023/07/10 13:46:24;;;;;;;4.22;2.95;;;;;;;;;;5010214;28;20050;-77
2023/07/10 13:48:55;;;;;;;3.40;3.08;;;;;;;;;;4992497;28;20400;-77
2023/07/10 13:51:24;;;;;;;2.67;2.33;;;;;;;;;;4991381;28;20440;-77
2023/07/10 13:53:52;;;;;;;7.75;3.03;;;;;;;;;;5009195;28;20535;-77
2023/07/10 13:56:21;;;;;;;4.80;2.45;;;;;;;;;;4991230;28;20053;-77
2023/07/10 13:58:53;;;;;;;5.55;2.67;;;;;;;;;;5009331;28;20053;-77
2023/07/10 14:01:24;;;;;;;3.38;2.95;;;;;;;;;;5006990;28;20054;-78
2023/07/10 14:03:53;;;;;;;5.40;2.60;;;;;;;;;;4989811;28;20492;-79
2023/07/10 14:06:29;;;;;;;3.33;2.63;;;;;;;;;;4997682;28;20053;-79
2023/07/10 14:09:03;;;;;;;5.72;2.90;;;;;;;;;;5009217;28;20052;-79
2023/07/10 14:11:33;;;;;;;2.92;2.58;;;;;;;;;;4995392;28;20057;-79
2023/07/10 14:14:03;;;;;;;3.03;2.38;;;;;;;;;;4986354;28;20158;-79
2023/07/10 14:16:32;;;;;;;4.65;3.33;;;;;;;;;;5011865;28;20058;-79
2023/07/10 14:19:06;;;;;;;4.13;2.58;;;;;;;;;;5009736;28;20389;-79
2023/07/10 14:21:33;;;;;;;2.67;2.47;;;;;;;;;;4988090;28;20046;-79
2023/07/10 14:24:03;;;;;;;4.32;2.53;;;;;;;;;;5012870;28;20060;-79
2023/07/10 14:26:30;;;;;;;3.10;2.00;;;;;;;;;;5005497;28;20141;-79
2023/07/10 14:28:59;;;;;;;10.38;3.05;;;;;;;;;;4994313;28;20075;-80
2023/07/10 14:31:28;;;;;;;2.53;2.08;;;;;;;;;;4995851;28;20053;-79
2023/07/10 14:33:57;;;;;;;3.22;2.75;;;;;;;;;;4991972;28;20053;-77
2023/07/10 14:36:28;;;;;;;4.00;2.50;;;;;;;;;;4990073;28;20053;-77
2023/07/10 14:38:58;;;;;;;2.65;2.35;;;;;;;;;;4992213;28;20046;-77
2023/07/10 14:41:28;;;;;;;4.78;1.95;;;;;;;;;;4990730;28;20393;-77
2023/07/10 14:43:57;;;;;;;2.38;1.90;;;;;;;;;;5007747;28;20050;-77
2023/07/10 14:46:30;;;;;;;3.70;2.60;;;;;;;;;;4990684;28;20431;-77
2023/07/10 14:49:01;;;;;;;2.75;2.35;;;;;;;;;;4988847;28;20053;-77
2023/07/10 14:51:30;;;;;;;2.75;2.25;;;;;;;;;;4992795;28;20068;-77
2023/07/10 14:53:58;;;;;;;13.75;2.38;;;;;;;;;;4990295;28;20045;-78
2023/07/10 14:56:26;;;;;;;3.33;2.58;;;;;;;;;;5007773;28;20167;-78
2023/07/10 14:58:53;;;;;;;3.40;2.10;;;;;;;;;;4994348;28;20049;-78
2023/07/10 15:01:25;;;;;;;;;;;;;;;;;;5007430;28;20058;-78
2023/07/10 15:03:54;;;;;;;3.63;1.95;;;;;;;;;;5011640;28;20135;-77
2023/07/10 15:06:27;;;;;;;3.10;2.00;;;;;;;;;;4994835;28;20065;-77
2023/07/10 15:08:58;;;;;;;3.03;1.90;;;;;;;;;;5021971;28;20041;-77